createdAt,value
2023-02-15T00:02:02.384Z,23.08
2023-02-15T00:04:47.810Z,24.45
2023-02-15T00:07:19.400Z,23.95
2023-02-15T00:09:47.579Z,24.40
2023-02-15T00:12:15.586Z,25.80
2023-02-15T00:14:43.320Z,25.08
2023-02-15T00:17:10.641Z,22.80
2023-02-15T00:19:37.950Z,25.33
2023-02-15T00:22:04.943Z,25.00
2023-02-15T00:24:31.974Z,26.80
2023-02-15T00:26:59.027Z,23.50
2023-02-15T00:29:26.126Z,22.90
2023-02-15T00:31:53.322Z,25.50
2023-02-15T00:34:23.280Z,21.20
2023-02-15T00:36:51.182Z,26.63
2023-02-15T00:39:18.945Z,25.73
2023-02-15T00:41:47.601Z,25.50
2023-02-15T00:44:15.213Z,26.00
2023-02-15T00:46:42.448Z,27.23
2023-02-15T00:49:10.524Z,24.70
2023-02-15T00:51:38.604Z,23.65
2023-02-15T00:54:06.097Z,23.92
2023-02-15T00:56:33.132Z,24.05
2023-02-15T00:59:00.183Z,25.27
2023-02-15T01:01:27.679Z,25.15
2023-02-15T01:03:54.851Z,29.52
2023-02-15T01:06:22.094Z,24.35
2023-02-15T01:08:49.412Z,26.10
2023-02-15T01:11:23.224Z,23.90
2023-02-15T01:13:56.128Z,23.55
2023-02-15T01:16:24.687Z,32.10
2023-02-15T01:18:52.062Z,39.55
2023-02-15T01:21:22.138Z,45.42
2023-02-15T01:23:49.523Z,34.42
2023-02-15T01:26:17.480Z,29.98
2023-02-15T01:28:45.039Z,24.90
2023-02-15T01:31:18.246Z,28.00
2023-02-15T01:33:46.985Z,26.83
2023-02-15T01:36:14.552Z,27.42
2023-02-15T01:38:42.807Z,26.88
2023-02-15T01:41:23.259Z,29.05
2023-02-15T01:43:53.443Z,42.33
2023-02-15T01:46:23.587Z,33.50
2023-02-15T01:48:57.811Z,32.30
2023-02-15T01:51:28.818Z,35.75
2023-02-15T01:54:25.656Z,36.40
2023-02-15T01:56:55.757Z,36.00
2023-02-15T01:59:25.076Z,32.97
2023-02-15T02:01:58.372Z,30.55
2023-02-15T02:04:36.495Z,29.02
2023-02-15T02:07:05.428Z,27.48
2023-02-15T02:09:33.258Z,31.15
2023-02-15T02:12:01.061Z,27.08
2023-02-15T02:14:28.211Z,28.55
2023-02-15T02:17:01.174Z,22.73
2023-02-15T02:20:05.459Z,30.20
2023-02-15T02:22:51.232Z,29.20
2023-02-15T02:25:30.766Z,30.55
2023-02-15T02:28:15.893Z,21.00
2023-02-15T02:31:01.437Z,28.30
2023-02-15T02:33:28.503Z,25.70
2023-02-15T02:36:04.813Z,27.25
2023-02-15T02:38:43.373Z,26.38
2023-02-15T02:41:32.149Z,23.85
2023-02-15T02:44:19.900Z,21.73
2023-02-15T02:47:05.437Z,23.30
2023-02-15T02:49:38.645Z,24.90
2023-02-15T02:52:27.401Z,22.07
2023-02-15T02:54:57.147Z,24.80
2023-02-15T02:57:25.287Z,20.75
2023-02-15T02:59:53.560Z,25.10
2023-02-15T03:02:26.435Z,24.90
2023-02-15T03:05:04.771Z,27.73
2023-02-15T03:07:35.099Z,23.67
2023-02-15T03:10:05.156Z,22.52
2023-02-15T03:12:42.203Z,25.20
2023-02-15T03:15:18.631Z,22.83
2023-02-15T03:17:50.676Z,25.90
2023-02-15T03:20:27.010Z,23.17
2023-02-15T03:23:01.745Z,27.27
2023-02-15T03:25:40.756Z,24.25
2023-02-15T03:28:23.563Z,24.65
2023-02-15T03:30:56.328Z,25.25
2023-02-15T03:33:27.414Z,25.63
2023-02-15T03:36:23.231Z,21.63
2023-02-15T03:39:00.817Z,25.73
2023-02-15T03:41:36.459Z,20.70
2023-02-15T03:44:17.434Z,22.80
2023-02-15T03:46:53.767Z,25.40
2023-02-15T03:49:56.817Z,22.88
2023-02-15T03:52:27.131Z,23.85
2023-02-15T03:54:55.686Z,22.52
2023-02-15T03:57:46.528Z,24.67
2023-02-15T04:00:35.071Z,23.73
2023-02-15T04:03:27.241Z,24.65
2023-02-15T04:05:54.301Z,20.75
2023-02-15T04:08:21.256Z,20.15
2023-02-15T04:10:54.150Z,17.95
2023-02-15T04:13:25.630Z,19.85
2023-02-15T04:16:07.905Z,23.17
2023-02-15T04:18:58.881Z,21.48
2023-02-15T04:21:46.614Z,22.42
2023-02-15T04:24:32.557Z,24.83
2023-02-15T04:27:00.806Z,21.05
2023-02-15T04:29:29.219Z,24.45
2023-02-15T04:31:59.648Z,19.77
2023-02-15T04:34:27.088Z,24.13
2023-02-15T04:36:54.042Z,23.17
2023-02-15T04:39:21.052Z,24.75
2023-02-15T04:41:48.895Z,24.65
2023-02-15T04:44:16.323Z,22.75
2023-02-15T04:46:43.287Z,23.95
2023-02-15T04:49:10.732Z,21.50
2023-02-15T04:51:38.080Z,19.73
2023-02-15T04:54:05.107Z,21.17
2023-02-15T04:56:34.143Z,21.70
2023-02-15T04:59:01.391Z,23.38
2023-02-15T05:01:28.901Z,21.60
2023-02-15T05:03:56.173Z,22.95
2023-02-15T05:06:23.393Z,24.42
2023-02-15T05:08:50.476Z,25.25
2023-02-15T05:11:17.507Z,23.13
2023-02-15T05:13:44.474Z,22.90
2023-02-15T05:16:11.564Z,23.25
2023-02-15T05:18:38.601Z,22.15
2023-02-15T05:21:05.637Z,23.88
2023-02-15T05:23:32.619Z,25.40
2023-02-15T05:26:18.203Z,23.10
2023-02-15T05:28:45.152Z,20.50
2023-02-15T05:31:15.117Z,23.48
2023-02-15T05:33:42.780Z,28.67
2023-02-15T05:36:10.209Z,23.27
2023-02-15T05:38:38.646Z,22.80
2023-02-15T05:41:06.897Z,22.33
2023-02-15T05:43:34.460Z,28.23
2023-02-15T05:46:02.201Z,27.98
2023-02-15T05:48:29.770Z,25.70
2023-02-15T05:51:09.150Z,28.83
2023-02-15T05:53:38.492Z,26.20
2023-02-15T05:56:07.254Z,27.50
2023-02-15T05:58:37.043Z,34.65
2023-02-15T06:01:12.679Z,29.58
2023-02-15T06:03:39.717Z,31.27
2023-02-15T06:06:07.504Z,27.27
2023-02-15T06:08:36.327Z,34.45
2023-02-15T06:11:04.046Z,32.50
2023-02-15T06:13:31.228Z,29.05
2023-02-15T06:15:58.468Z,31.35
2023-02-15T06:18:25.558Z,29.60
2023-02-15T06:20:52.610Z,27.77
2023-02-15T06:23:19.765Z,29.05
2023-02-15T06:25:48.384Z,26.00
2023-02-15T06:28:15.407Z,28.98
2023-02-15T06:30:42.520Z,27.20
2023-02-15T06:33:09.630Z,27.73
2023-02-15T06:35:37.921Z,26.85
2023-02-15T06:38:05.062Z,29.10
2023-02-15T06:40:32.004Z,32.42
2023-02-15T06:42:59.040Z,27.67
2023-02-15T06:45:25.992Z,26.30
2023-02-15T06:47:52.977Z,29.02
2023-02-15T06:50:20.059Z,27.02
2023-02-15T06:52:47.139Z,26.17
2023-02-15T06:55:14.140Z,28.52
2023-02-15T06:57:41.374Z,40.72
2023-02-15T07:00:09.262Z,37.40
2023-02-15T07:02:36.313Z,37.75
2023-02-15T07:05:05.282Z,38.13
2023-02-15T07:07:32.367Z,32.42
2023-02-15T07:09:59.362Z,34.22
2023-02-15T07:12:45.588Z,32.72
2023-02-15T07:15:15.978Z,32.97
2023-02-15T07:17:43.842Z,35.05
2023-02-15T07:20:17.568Z,31.83
2023-02-15T07:22:44.897Z,31.67
2023-02-15T07:25:13.386Z,32.80
2023-02-15T07:27:41.144Z,31.60
2023-02-15T07:30:11.767Z,31.92
2023-02-15T07:32:58.920Z,35.25
2023-02-15T07:35:26.486Z,36.53
2023-02-15T07:37:54.160Z,34.15
2023-02-15T07:40:24.422Z,35.03
2023-02-15T07:42:54.152Z,34.05
2023-02-15T07:45:22.321Z,34.42
2023-02-15T07:47:50.016Z,37.30
2023-02-15T07:50:17.311Z,37.45
2023-02-15T07:52:44.349Z,39.00
2023-02-15T07:55:13.897Z,37.33
2023-02-15T07:57:47.897Z,40.58
2023-02-15T08:00:16.468Z,34.20
2023-02-15T08:02:48.699Z,40.60
2023-02-15T08:05:18.027Z,39.40
2023-02-15T08:07:45.081Z,39.80
2023-02-15T08:10:32.042Z,37.05
2023-02-15T08:12:59.014Z,36.50
2023-02-15T08:15:25.936Z,39.58
2023-02-15T08:17:52.905Z,38.47
2023-02-15T08:20:19.852Z,43.10
2023-02-15T08:22:46.882Z,40.92
2023-02-15T08:25:13.950Z,42.83
2023-02-15T08:27:41.015Z,44.40
2023-02-15T08:30:09.174Z,41.20
2023-02-15T08:32:36.243Z,44.75
2023-02-15T08:35:03.212Z,47.13
2023-02-15T08:37:30.264Z,47.20
2023-02-15T08:39:57.245Z,45.03
2023-02-15T08:42:24.247Z,48.03
2023-02-15T08:44:52.637Z,48.58
2023-02-15T08:47:19.754Z,49.45
2023-02-15T08:49:46.709Z,51.13
2023-02-15T08:52:13.769Z,50.53
2023-02-15T08:54:40.788Z,53.85
2023-02-15T08:57:08.044Z,51.42
2023-02-15T08:59:35.125Z,50.35
2023-02-15T09:02:02.462Z,54.22
2023-02-15T09:04:29.520Z,53.55
2023-02-15T09:06:56.553Z,54.45
2023-02-15T09:09:23.501Z,52.67
2023-02-15T09:11:57.733Z,55.58
2023-02-15T09:14:27.644Z,55.63
2023-02-15T09:16:55.051Z,59.30
2023-02-15T09:19:23.725Z,59.17
2023-02-15T09:21:51.224Z,58.75
2023-02-15T09:24:19.255Z,60.38
2023-02-15T09:26:48.431Z,59.05
2023-02-15T09:29:17.077Z,61.25
2023-02-15T09:31:49.920Z,58.58
2023-02-15T09:34:19.364Z,57.53
2023-02-15T09:36:46.832Z,59.03
2023-02-15T09:39:22.115Z,56.42
2023-02-15T09:42:08.060Z,55.42
2023-02-15T09:45:07.931Z,53.40
2023-02-15T09:48:02.804Z,51.80
2023-02-15T09:50:36.799Z,53.72
2023-02-15T09:55:54.031Z,52.10
2023-02-15T09:58:37.065Z,55.63
2023-02-15T10:01:40.863Z,52.80
2023-02-15T10:04:31.779Z,52.10
2023-02-15T10:07:20.869Z,51.15
2023-02-15T10:10:26.616Z,48.22
2023-02-15T10:13:15.256Z,46.67
2023-02-15T10:16:16.720Z,46.40
2023-02-15T10:18:55.032Z,48.13
2023-02-15T10:21:31.332Z,44.90
2023-02-15T10:24:07.647Z,46.25
2023-02-15T10:26:48.346Z,46.88
2023-02-15T10:29:37.603Z,46.30
2023-02-15T10:32:27.760Z,45.80
2023-02-15T10:35:07.001Z,44.95
2023-02-15T10:37:42.934Z,46.88
2023-02-15T10:40:21.870Z,46.47
2023-02-15T10:42:57.829Z,44.97
2023-02-15T10:45:37.283Z,46.55
2023-02-15T10:48:25.478Z,47.33
2023-02-15T10:51:04.117Z,49.00
2023-02-15T10:53:41.740Z,50.03
2023-02-15T10:56:28.025Z,48.90
2023-02-15T10:59:11.537Z,46.60
2023-02-15T11:01:42.935Z,54.13
2023-02-15T11:04:43.939Z,47.95
2023-02-15T11:07:20.526Z,46.15
2023-02-15T11:10:02.759Z,47.20
2023-02-15T11:12:31.976Z,43.83
2023-02-15T11:15:05.129Z,45.17
2023-02-15T11:17:46.886Z,53.30
2023-02-15T11:20:25.701Z,51.67
2023-02-15T11:22:54.498Z,46.83
2023-02-15T11:25:33.619Z,49.83
2023-02-15T11:28:04.810Z,52.13
2023-02-15T11:30:45.956Z,45.95
2023-02-15T11:33:32.636Z,44.30
2023-02-15T11:36:07.125Z,51.08
2023-02-15T11:38:35.061Z,50.92
2023-02-15T11:41:10.209Z,49.75
2023-02-15T11:44:04.673Z,47.05
2023-02-15T11:46:31.810Z,47.53
2023-02-15T11:48:59.422Z,48.22
2023-02-15T11:51:28.934Z,48.55
2023-02-15T11:53:57.063Z,51.10
2023-02-15T11:56:25.939Z,47.33
2023-02-15T11:59:05.187Z,49.63
2023-02-15T12:01:36.231Z,47.67
2023-02-15T12:04:15.984Z,47.70
2023-02-15T12:06:49.567Z,46.63
2023-02-15T12:09:33.026Z,43.47
2023-02-15T12:12:24.136Z,44.53
2023-02-15T12:14:58.981Z,44.85
2023-02-15T12:17:39.991Z,43.95
2023-02-15T12:20:16.189Z,43.72
2023-02-15T12:22:54.597Z,44.05
2023-02-15T12:25:26.969Z,45.40
2023-02-15T12:27:54.060Z,45.50
2023-02-15T12:30:35.632Z,43.30
2023-02-15T12:33:32.371Z,44.40
2023-02-15T12:36:12.484Z,44.75
2023-02-15T12:38:39.696Z,44.78
2023-02-15T12:41:25.086Z,43.05
2023-02-15T12:44:16.585Z,41.88
2023-02-15T12:46:57.103Z,43.15
2023-02-15T12:49:24.483Z,42.72
2023-02-15T12:52:23.082Z,43.70
2023-02-15T12:54:51.484Z,42.53
2023-02-15T12:57:34.183Z,43.50
2023-02-15T13:00:04.258Z,43.08
2023-02-15T13:02:48.278Z,41.28
2023-02-15T13:05:20.812Z,41.28
2023-02-15T13:07:56.998Z,43.38
2023-02-15T13:10:25.638Z,40.90
2023-02-15T13:12:55.226Z,42.17
2023-02-15T13:15:47.692Z,41.42
2023-02-15T13:18:20.269Z,40.55
2023-02-15T13:20:49.334Z,40.08
2023-02-15T13:23:36.494Z,39.35
2023-02-15T13:26:06.194Z,38.45
2023-02-15T13:28:42.140Z,39.30
2023-02-15T13:31:19.224Z,39.33
2023-02-15T13:34:10.608Z,38.33
2023-02-15T13:36:52.711Z,38.75
2023-02-15T13:39:28.358Z,38.70
2023-02-15T13:42:03.252Z,40.22
2023-02-15T13:44:42.549Z,38.38
2023-02-15T13:47:15.482Z,37.70
2023-02-15T13:49:58.025Z,38.65
2023-02-15T13:52:27.904Z,38.20
2023-02-15T13:55:16.265Z,39.85
2023-02-15T13:58:13.122Z,39.97
2023-02-15T14:00:58.390Z,38.78
2023-02-15T14:03:31.447Z,38.17
2023-02-15T14:06:07.335Z,39.97
2023-02-15T14:08:37.341Z,41.05
2023-02-15T14:11:36.711Z,39.42
2023-02-15T14:14:31.745Z,41.15
2023-02-15T14:17:10.976Z,40.42
2023-02-15T14:19:51.107Z,43.08
2023-02-15T14:22:42.691Z,40.78
2023-02-15T14:25:21.956Z,41.40
2023-02-15T14:28:09.925Z,42.58
2023-02-15T14:30:49.364Z,44.67
2023-02-15T14:33:36.056Z,45.03
2023-02-15T14:36:07.695Z,45.20
2023-02-15T14:38:40.828Z,42.67
2023-02-15T14:41:18.205Z,43.10
2023-02-15T14:43:54.291Z,42.35
2023-02-15T14:46:36.303Z,44.10
2023-02-15T14:49:07.374Z,45.40
2023-02-15T14:51:46.878Z,43.72
2023-02-15T14:54:23.009Z,42.83
2023-02-15T14:57:02.095Z,43.08
2023-02-15T14:59:44.057Z,44.13
2023-02-15T15:02:19.643Z,43.05
2023-02-15T15:04:52.802Z,43.17
2023-02-15T15:07:23.130Z,42.83
2023-02-15T15:10:01.666Z,41.50
2023-02-15T15:12:34.819Z,42.25
2023-02-15T15:15:02.563Z,42.40
2023-02-15T15:17:37.644Z,41.95
2023-02-15T15:20:33.585Z,40.83
2023-02-15T15:23:15.758Z,43.53
2023-02-15T15:25:46.154Z,41.88
2023-02-15T15:28:51.907Z,41.67
2023-02-15T15:31:32.230Z,43.60
2023-02-15T15:34:17.774Z,43.95
2023-02-15T15:37:03.170Z,42.40
2023-02-15T15:39:46.338Z,40.17
2023-02-15T15:42:51.156Z,41.40
2023-02-15T15:45:27.022Z,42.25
2023-02-15T15:48:12.578Z,43.35
2023-02-15T15:50:43.590Z,41.85
2023-02-15T15:53:42.305Z,42.05
2023-02-15T15:56:18.103Z,41.92
2023-02-15T15:58:54.255Z,42.78
2023-02-15T16:01:35.376Z,43.08
2023-02-15T16:04:02.826Z,42.97
2023-02-15T16:06:39.043Z,45.28
2023-02-15T16:09:15.040Z,45.10
2023-02-15T16:11:42.499Z,42.58
2023-02-15T16:14:26.874Z,45.15
2023-02-15T16:16:58.160Z,44.83
2023-02-15T16:19:29.198Z,43.65
2023-02-15T16:21:58.792Z,44.97
2023-02-15T16:24:53.078Z,41.47
2023-02-15T16:27:20.095Z,44.30
2023-02-15T16:29:47.158Z,44.60
2023-02-15T16:32:36.871Z,45.53
2023-02-15T16:35:04.378Z,43.30
2023-02-15T16:37:35.680Z,46.63
2023-02-15T16:40:02.935Z,45.10
2023-02-15T16:42:30.336Z,45.13
2023-02-15T16:45:13.429Z,46.28
2023-02-15T16:47:44.809Z,47.03
2023-02-15T16:50:25.410Z,46.92
2023-02-15T16:52:53.449Z,45.42
2023-02-15T16:55:23.857Z,48.33
2023-02-15T16:57:53.941Z,44.13
2023-02-15T17:00:35.523Z,47.20
2023-02-15T17:03:21.699Z,48.03
2023-02-15T17:05:53.876Z,48.35
2023-02-15T17:08:29.538Z,46.22
2023-02-15T17:10:59.617Z,47.63
2023-02-15T17:13:28.023Z,47.67
2023-02-15T17:16:01.216Z,48.35
2023-02-15T17:18:40.573Z,46.72
2023-02-15T17:21:14.841Z,49.65
2023-02-15T17:23:45.066Z,53.45
2023-02-15T17:26:17.158Z,49.78
2023-02-15T17:29:30.332Z,48.83
2023-02-15T17:31:58.954Z,49.13
2023-02-15T17:34:47.351Z,47.30
2023-02-15T17:37:23.893Z,38.53
2023-02-15T17:39:50.882Z,47.50
2023-02-15T17:42:17.813Z,45.92
2023-02-15T17:44:44.877Z,43.90
2023-02-15T17:47:18.232Z,45.42
2023-02-15T17:49:46.515Z,43.22
2023-02-15T17:52:17.061Z,43.33
2023-02-15T17:55:03.506Z,34.28
2023-02-15T17:57:31.239Z,33.25
2023-02-15T18:00:16.991Z,41.17
2023-02-15T18:03:03.110Z,34.88
2023-02-15T18:05:48.826Z,41.35
2023-02-15T18:08:36.882Z,41.58
2023-02-15T18:11:22.641Z,41.15
2023-02-15T18:13:49.761Z,41.85
2023-02-15T18:16:22.952Z,34.58
2023-02-15T18:18:50.408Z,42.53
2023-02-15T18:21:17.448Z,43.05
2023-02-15T18:23:44.552Z,35.45
2023-02-15T18:26:17.854Z,42.30
2023-02-15T18:28:44.915Z,41.72
2023-02-15T18:31:13.216Z,32.55
2023-02-15T18:33:45.047Z,42.42
2023-02-15T18:36:18.580Z,32.30
2023-02-15T18:38:45.661Z,44.35
2023-02-15T18:41:20.140Z,33.33
2023-02-15T18:43:49.062Z,43.90
2023-02-15T18:46:17.311Z,42.28
2023-02-15T18:48:46.438Z,42.63
2023-02-15T18:51:21.635Z,33.53
2023-02-15T18:53:52.499Z,42.20
2023-02-15T18:56:23.063Z,43.63
2023-02-15T18:58:50.781Z,41.55
2023-02-15T19:01:20.286Z,33.45
2023-02-15T19:03:49.542Z,32.65
2023-02-15T19:06:20.246Z,44.50
2023-02-15T19:08:50.365Z,46.08
2023-02-15T19:11:23.296Z,33.28
2023-02-15T19:13:52.013Z,41.55
2023-02-15T19:16:27.404Z,33.67
2023-02-15T19:18:55.094Z,34.05
2023-02-15T19:21:23.209Z,40.00
2023-02-15T19:24:03.341Z,32.75
2023-02-15T19:26:44.531Z,30.73
2023-02-15T19:29:15.238Z,31.08
2023-02-15T19:31:42.621Z,38.70
2023-02-15T19:34:15.809Z,34.00
2023-02-15T19:36:51.581Z,42.67
2023-02-15T19:39:33.766Z,35.33
2023-02-15T19:42:00.905Z,36.47
2023-02-15T19:44:27.885Z,51.58
2023-02-15T19:46:54.914Z,37.47
2023-02-15T19:49:21.870Z,37.90
2023-02-15T19:51:48.942Z,44.80
2023-02-15T19:54:33.445Z,45.95
2023-02-15T19:57:01.305Z,63.67
2023-02-15T19:59:32.290Z,42.53
2023-02-15T20:01:59.422Z,47.10
2023-02-15T20:04:27.188Z,35.50
2023-02-15T20:06:57.137Z,33.15
2023-02-15T20:09:28.878Z,37.40
2023-02-15T20:11:56.473Z,37.75
2023-02-15T20:14:24.068Z,51.75
2023-02-15T20:16:51.631Z,41.15
2023-02-15T20:19:18.842Z,40.47
2023-02-15T20:21:52.014Z,41.80
2023-02-15T20:24:21.853Z,39.40
2023-02-15T20:26:48.927Z,36.47
2023-02-15T20:29:18.570Z,39.97
2023-02-15T20:31:46.150Z,43.17
2023-02-15T20:34:13.393Z,34.95
2023-02-15T20:36:41.603Z,35.90
2023-02-15T20:39:17.987Z,36.53
2023-02-15T20:41:47.968Z,35.58
2023-02-15T20:44:27.634Z,35.33
2023-02-15T20:46:57.254Z,37.17
2023-02-15T20:49:27.852Z,35.92
2023-02-15T20:51:56.335Z,34.88
2023-02-15T20:54:26.549Z,33.72
2023-02-15T20:56:57.494Z,36.60
2023-02-15T20:59:32.038Z,35.70
2023-02-15T21:02:24.105Z,35.58
2023-02-15T21:04:52.190Z,34.92
2023-02-15T21:07:22.333Z,41.17
2023-02-15T21:09:49.772Z,37.97
2023-02-15T21:12:19.383Z,38.58
2023-02-15T21:14:46.604Z,40.30
2023-02-15T21:17:14.901Z,42.38
2023-02-15T21:19:42.166Z,38.50
2023-02-15T21:22:16.625Z,37.17
2023-02-15T21:24:51.831Z,37.28
2023-02-15T21:27:19.141Z,40.25
2023-02-15T21:29:46.108Z,37.33
2023-02-15T21:32:13.272Z,40.80
2023-02-15T21:34:40.870Z,38.78
2023-02-15T21:37:27.628Z,40.38
2023-02-15T21:39:54.730Z,34.22
2023-02-15T21:42:40.239Z,35.80
2023-02-15T21:45:33.843Z,34.15
2023-02-15T21:48:03.958Z,35.80
2023-02-15T21:50:49.513Z,36.92
2023-02-15T21:53:30.656Z,41.30
2023-02-15T21:56:00.555Z,40.08
2023-02-15T21:58:30.723Z,37.35
2023-02-15T22:00:59.279Z,41.72
2023-02-15T22:03:32.165Z,41.63
2023-02-15T22:05:59.278Z,38.40
2023-02-15T22:08:27.658Z,40.25
2023-02-15T22:10:56.028Z,40.13
2023-02-15T22:13:34.211Z,43.03
2023-02-15T22:16:02.924Z,43.92
2023-02-15T22:18:33.810Z,40.53
2023-02-15T22:21:02.642Z,42.25
2023-02-15T22:23:30.176Z,44.90
2023-02-15T22:26:07.624Z,43.78
2023-02-15T22:28:40.042Z,46.08
2023-02-15T22:31:13.314Z,43.17
2023-02-15T22:33:40.858Z,43.20
2023-02-15T22:36:26.690Z,46.55
2023-02-15T22:38:54.363Z,43.95
2023-02-15T22:41:25.202Z,45.97
2023-02-15T22:43:53.095Z,48.45
2023-02-15T22:46:24.940Z,45.70
2023-02-15T22:48:52.285Z,45.90
2023-02-15T22:51:21.787Z,46.40
2023-02-15T22:53:54.617Z,52.97
2023-02-15T22:56:43.051Z,45.67
2023-02-15T22:59:34.069Z,43.40
2023-02-15T23:02:03.436Z,44.50
2023-02-15T23:04:30.574Z,46.25
2023-02-15T23:07:00.728Z,42.90
2023-02-15T23:09:27.773Z,44.63
2023-02-15T23:11:54.886Z,48.60
2023-02-15T23:14:34.396Z,44.47
2023-02-15T23:17:01.871Z,45.45
2023-02-15T23:19:29.046Z,44.50
2023-02-15T23:21:56.119Z,43.80
2023-02-15T23:24:34.567Z,42.65
2023-02-15T23:27:20.402Z,42.53
2023-02-15T23:29:47.416Z,42.65
2023-02-15T23:32:15.383Z,41.70
2023-02-15T23:34:43.220Z,44.80
2023-02-15T23:37:15.527Z,43.65
2023-02-15T23:40:01.205Z,43.17
2023-02-15T23:42:33.615Z,44.58
2023-02-15T23:45:01.494Z,49.65
2023-02-15T23:47:53.348Z,45.80
2023-02-15T23:50:23.126Z,40.92
2023-02-15T23:52:51.413Z,44.38
2023-02-15T23:55:19.375Z,46.13
2023-02-15T23:57:47.062Z,44.92
